sensor_id;sensor_type;location;lat;lon;timestamp;pressure;altitude;pressure_sealevel;temperature;humidity
19150;BME280;9707;49.158;8.632;2023-05-07T00:01:11;100286.84;;;24.48;38.30
19150;BME280;9707;49.158;8.632;2023-05-07T00:03:36;100288.69;;;24.47;38.23
19150;BME280;9707;49.158;8.632;2023-05-07T00:06:03;100289.72;;;24.46;38.10
19150;BME280;9707;49.158;8.632;2023-05-07T00:08:28;100283.38;;;24.46;38.26
19150;BME280;9707;49.158;8.632;2023-05-07T00:10:53;100280.66;;;24.46;38.04
19150;BME280;9707;49.158;8.632;2023-05-07T00:13:19;100277.25;;;24.44;37.97
19150;BME280;9707;49.158;8.632;2023-05-07T00:15:44;100278.25;;;24.43;37.87
19150;BME280;9707;49.158;8.632;2023-05-07T00:18:10;100271.13;;;24.42;37.87
19150;BME280;9707;49.158;8.632;2023-05-07T00:20:35;100270.09;;;24.43;38.15
19150;BME280;9707;49.158;8.632;2023-05-07T00:23:00;100261.94;;;24.43;38.07
19150;BME280;9707;49.158;8.632;2023-05-07T00:25:25;100262.06;;;24.41;38.16
19150;BME280;9707;49.158;8.632;2023-05-07T00:27:51;100260.22;;;24.42;38.06
19150;BME280;9707;49.158;8.632;2023-05-07T00:30:16;100262.22;;;24.40;38.20
19150;BME280;9707;49.158;8.632;2023-05-07T00:32:41;100270.25;;;24.41;38.16
19150;BME280;9707;49.158;8.632;2023-05-07T00:35:07;100270.69;;;24.37;38.11
19150;BME280;9707;49.158;8.632;2023-05-07T00:37:32;100270.69;;;24.37;38.22
19150;BME280;9707;49.158;8.632;2023-05-07T00:39:58;100271.53;;;24.37;38.12
19150;BME280;9707;49.158;8.632;2023-05-07T00:42:24;100267.97;;;24.37;38.12
19150;BME280;9707;49.158;8.632;2023-05-07T00:44:49;100271.69;;;24.36;38.20
19150;BME280;9707;49.158;8.632;2023-05-07T00:47:14;100261.66;;;24.36;38.04
19150;BME280;9707;49.158;8.632;2023-05-07T00:49:44;100262.69;;;24.35;38.18
19150;BME280;9707;49.158;8.632;2023-05-07T00:52:13;100262.69;;;24.35;38.01
19150;BME280;9707;49.158;8.632;2023-05-07T00:54:40;100263.69;;;24.34;38.14
19150;BME280;9707;49.158;8.632;2023-05-07T00:57:05;100263.69;;;24.34;37.61
19150;BME280;9707;49.158;8.632;2023-05-07T00:59:32;100258.38;;;24.33;37.90
19150;BME280;9707;49.158;8.632;2023-05-07T01:01:58;100258.38;;;24.33;38.19
19150;BME280;9707;49.158;8.632;2023-05-07T01:04:23;100255.66;;;24.33;38.09
19150;BME280;9707;49.158;8.632;2023-05-07T01:06:49;100248.50;;;24.32;38.30
19150;BME280;9707;49.158;8.632;2023-05-07T01:09:15;100236.75;;;24.31;38.14
19150;BME280;9707;49.158;8.632;2023-05-07T01:11:40;100243.06;;;24.32;38.14
19150;BME280;9707;49.158;8.632;2023-05-07T01:14:06;100248.50;;;24.32;38.31
19150;BME280;9707;49.158;8.632;2023-05-07T01:16:36;100244.06;;;24.31;38.18
19150;BME280;9707;49.158;8.632;2023-05-07T01:19:01;100245.06;;;24.30;38.33
19150;BME280;9707;49.158;8.632;2023-05-07T01:21:32;100251.38;;;24.30;38.09
19150;BME280;9707;49.158;8.632;2023-05-07T01:23:58;100251.38;;;24.30;38.27
19150;BME280;9707;49.158;8.632;2023-05-07T01:26:24;100252.53;;;24.28;38.07
19150;BME280;9707;49.158;8.632;2023-05-07T01:28:49;100254.25;;;24.29;38.31
19150;BME280;9707;49.158;8.632;2023-05-07T01:31:15;100246.06;;;24.29;38.13
19150;BME280;9707;49.158;8.632;2023-05-07T01:33:42;100238.91;;;24.28;37.99
19150;BME280;9707;49.158;8.632;2023-05-07T01:36:10;100248.78;;;24.29;37.99
19150;BME280;9707;49.158;8.632;2023-05-07T01:38:37;100248.94;;;24.27;38.05
19150;BME280;9707;49.158;8.632;2023-05-07T01:41:03;100245.38;;;24.27;38.30
19150;BME280;9707;49.158;8.632;2023-05-07T01:43:30;100240.91;;;24.26;38.47
19150;BME280;9707;49.158;8.632;2023-05-07T01:45:57;100240.91;;;24.26;38.47
19150;BME280;9707;49.158;8.632;2023-05-07T01:48:24;100235.47;;;24.26;38.33
19150;BME280;9707;49.158;8.632;2023-05-07T01:50:49;100235.66;;;24.24;38.54
19150;BME280;9707;49.158;8.632;2023-05-07T01:53:15;100245.66;;;24.24;38.18
19150;BME280;9707;49.158;8.632;2023-05-07T01:55:40;100242.25;;;24.22;38.40
19150;BME280;9707;49.158;8.632;2023-05-07T01:58:06;100247.69;;;24.22;38.40
19150;BME280;9707;49.158;8.632;2023-05-07T02:00:31;100247.69;;;24.22;38.40
19150;BME280;9707;49.158;8.632;2023-05-07T02:02:56;100253.13;;;24.22;38.48
19150;BME280;9707;49.158;8.632;2023-05-07T02:05:22;100254.84;;;24.23;38.60
19150;BME280;9707;49.158;8.632;2023-05-07T02:07:47;100251.09;;;24.24;38.35
19150;BME280;9707;49.158;8.632;2023-05-07T02:10:13;100254.84;;;24.23;38.33
19150;BME280;9707;49.158;8.632;2023-05-07T02:12:38;100263.00;;;24.23;38.20
19150;BME280;9707;49.158;8.632;2023-05-07T02:15:03;100245.81;;;24.22;38.21
19150;BME280;9707;49.158;8.632;2023-05-07T02:17:29;100241.22;;;24.23;38.29
19150;BME280;9707;49.158;8.632;2023-05-07T02:19:58;100253.13;;;24.22;38.00
19150;BME280;9707;49.158;8.632;2023-05-07T02:22:23;100247.69;;;24.22;38.19
19150;BME280;9707;49.158;8.632;2023-05-07T02:24:49;100245.94;;;24.21;38.19
19150;BME280;9707;49.158;8.632;2023-05-07T02:27:14;100245.13;;;24.20;38.09
19150;BME280;9707;49.158;8.632;2023-05-07T02:29:39;100248.66;;;24.21;38.40
19150;BME280;9707;49.158;8.632;2023-05-07T02:32:04;100245.94;;;24.21;38.11
19150;BME280;9707;49.158;8.632;2023-05-07T02:34:30;100254.13;;;24.21;38.12
19150;BME280;9707;49.158;8.632;2023-05-07T02:36:55;100260.56;;;24.20;38.04
19150;BME280;9707;49.158;8.632;2023-05-07T02:39:20;100249.69;;;24.20;38.17
19150;BME280;9707;49.158;8.632;2023-05-07T02:41:46;100252.41;;;24.20;38.08
19150;BME280;9707;49.158;8.632;2023-05-07T02:44:11;100247.09;;;24.18;38.10
19150;BME280;9707;49.158;8.632;2023-05-07T02:46:36;100251.56;;;24.19;38.31
19150;BME280;9707;49.158;8.632;2023-05-07T02:49:01;100248.13;;;24.17;38.13
19150;BME280;9707;49.158;8.632;2023-05-07T02:51:27;100252.53;;;24.18;38.28
19150;BME280;9707;49.158;8.632;2023-05-07T02:53:52;100246.25;;;24.18;38.03
19150;BME280;9707;49.158;8.632;2023-05-07T02:56:17;100246.25;;;24.18;38.20
19150;BME280;9707;49.158;8.632;2023-05-07T02:58:42;100243.53;;;24.18;38.24
19150;BME280;9707;49.158;8.632;2023-05-07T03:01:08;100245.41;;;24.17;38.19
19150;BME280;9707;49.158;8.632;2023-05-07T03:03:34;100240.81;;;24.18;38.08
19150;BME280;9707;49.158;8.632;2023-05-07T03:06:00;100227.34;;;24.16;38.13
19150;BME280;9707;49.158;8.632;2023-05-07T03:08:25;100239.13;;;24.17;38.22
19150;BME280;9707;49.158;8.632;2023-05-07T03:10:50;100226.47;;;24.16;37.93
19150;BME280;9707;49.158;8.632;2023-05-07T03:13:16;100220.19;;;24.15;37.87
19150;BME280;9707;49.158;8.632;2023-05-07T03:15:41;100218.63;;;24.13;37.93
19150;BME280;9707;49.158;8.632;2023-05-07T03:18:06;100215.91;;;24.13;37.87
19150;BME280;9707;49.158;8.632;2023-05-07T03:20:31;100225.09;;;24.12;37.85
19150;BME280;9707;49.158;8.632;2023-05-07T03:22:57;100217.94;;;24.11;38.13
19150;BME280;9707;49.158;8.632;2023-05-07T03:25:22;100225.09;;;24.12;37.94
19150;BME280;9707;49.158;8.632;2023-05-07T03:27:48;100222.50;;;24.10;38.20
19150;BME280;9707;49.158;8.632;2023-05-07T03:30:13;100214.50;;;24.09;37.88
19150;BME280;9707;49.158;8.632;2023-05-07T03:32:38;100219.94;;;24.09;37.98
19150;BME280;9707;49.158;8.632;2023-05-07T03:35:04;100217.22;;;24.09;38.04
19150;BME280;9707;49.158;8.632;2023-05-07T03:37:29;100213.66;;;24.08;38.09
19150;BME280;9707;49.158;8.632;2023-05-07T03:39:55;100221.09;;;24.06;38.13
19150;BME280;9707;49.158;8.632;2023-05-07T03:42:20;100221.97;;;24.07;38.18
19150;BME280;9707;49.158;8.632;2023-05-07T03:44:45;100233.84;;;24.06;38.10
19150;BME280;9707;49.158;8.632;2023-05-07T03:47:11;100236.56;;;24.06;38.06
19150;BME280;9707;49.158;8.632;2023-05-07T03:49:36;100234.84;;;24.05;38.16
19150;BME280;9707;49.158;8.632;2023-05-07T03:52:01;100233.13;;;24.04;38.16
19150;BME280;9707;49.158;8.632;2023-05-07T03:54:27;100254.91;;;24.04;38.64
19150;BME280;9707;49.158;8.632;2023-05-07T03:56:52;100246.72;;;24.04;38.07
19150;BME280;9707;49.158;8.632;2023-05-07T03:59:17;100260.34;;;24.04;38.28
19150;BME280;9707;49.158;8.632;2023-05-07T04:01:42;100253.19;;;24.03;38.12
19150;BME280;9707;49.158;8.632;2023-05-07T04:04:08;100258.78;;;24.01;38.09
19150;BME280;9707;49.158;8.632;2023-05-07T04:06:33;100262.38;;;24.02;38.13
19150;BME280;9707;49.158;8.632;2023-05-07T04:08:58;100258.91;;;24.00;38.14
19150;BME280;9707;49.158;8.632;2023-05-07T04:11:24;100261.63;;;24.00;38.28
19150;BME280;9707;49.158;8.632;2023-05-07T04:13:50;100264.34;;;24.00;38.23
19150;BME280;9707;49.158;8.632;2023-05-07T04:16:17;100264.34;;;24.00;38.21
19150;BME280;9707;49.158;8.632;2023-05-07T04:18:43;100268.09;;;23.99;38.23
19150;BME280;9707;49.158;8.632;2023-05-07T04:21:15;100259.09;;;23.98;38.30
19150;BME280;9707;49.158;8.632;2023-05-07T04:23:41;100259.94;;;23.99;38.15
19150;BME280;9707;49.158;8.632;2023-05-07T04:26:09;100266.38;;;23.98;38.41
19150;BME280;9707;49.158;8.632;2023-05-07T04:28:35;100268.22;;;23.97;38.41
19150;BME280;9707;49.158;8.632;2023-05-07T04:31:00;100265.50;;;23.97;38.15
19150;BME280;9707;49.158;8.632;2023-05-07T04:33:25;100271.13;;;23.96;38.45
19150;BME280;9707;49.158;8.632;2023-05-07T04:35:50;100268.41;;;23.96;38.39
19150;BME280;9707;49.158;8.632;2023-05-07T04:38:16;100274.69;;;23.96;38.34
19150;BME280;9707;49.158;8.632;2023-05-07T04:40:41;100269.25;;;23.96;38.29
19150;BME280;9707;49.158;8.632;2023-05-07T04:43:07;100268.41;;;23.96;38.03
19150;BME280;9707;49.158;8.632;2023-05-07T04:45:34;100262.22;;;23.94;37.97
19150;BME280;9707;49.158;8.632;2023-05-07T04:47:59;100264.09;;;23.93;37.97
19150;BME280;9707;49.158;8.632;2023-05-07T04:50:25;100269.69;;;23.92;37.96
19150;BME280;9707;49.158;8.632;2023-05-07T04:52:50;100269.69;;;23.92;38.30
19150;BME280;9707;49.158;8.632;2023-05-07T04:55:16;100276.84;;;23.93;38.05
19150;BME280;9707;49.158;8.632;2023-05-07T04:57:41;100276.84;;;23.93;38.31
19150;BME280;9707;49.158;8.632;2023-05-07T05:00:09;100277.84;;;23.92;38.16
19150;BME280;9707;49.158;8.632;2023-05-07T05:02:34;100278.88;;;23.91;38.01
19150;BME280;9707;49.158;8.632;2023-05-07T05:05:00;100285.28;;;23.90;38.14
19150;BME280;9707;49.158;8.632;2023-05-07T05:07:27;100284.44;;;23.89;38.16
19150;BME280;9707;49.158;8.632;2023-05-07T05:09:53;100285.28;;;23.90;38.47
19150;BME280;9707;49.158;8.632;2023-05-07T05:12:18;100287.88;;;23.91;38.45
19150;BME280;9707;49.158;8.632;2023-05-07T05:14:43;100295.19;;;23.91;38.66
19150;BME280;9707;49.158;8.632;2023-05-07T05:17:09;100289.56;;;23.92;38.41
19150;BME280;9707;49.158;8.632;2023-05-07T05:19:34;100303.03;;;23.94;38.37
19150;BME280;9707;49.158;8.632;2023-05-07T05:21:59;100295.88;;;23.93;37.97
19150;BME280;9707;49.158;8.632;2023-05-07T05:24:26;100293.31;;;23.91;37.88
19150;BME280;9707;49.158;8.632;2023-05-07T05:26:53;100292.47;;;23.91;37.89
19150;BME280;9707;49.158;8.632;2023-05-07T05:29:18;100300.63;;;23.91;38.33
19150;BME280;9707;49.158;8.632;2023-05-07T05:31:43;100302.34;;;23.92;38.30
19150;BME280;9707;49.158;8.632;2023-05-07T05:34:09;100293.31;;;23.91;38.40
19150;BME280;9707;49.158;8.632;2023-05-07T05:36:34;100292.47;;;23.91;38.45
19150;BME280;9707;49.158;8.632;2023-05-07T05:38:59;100304.06;;;23.93;38.29
19150;BME280;9707;49.158;8.632;2023-05-07T05:41:24;100302.03;;;23.95;38.58
19150;BME280;9707;49.158;8.632;2023-05-07T05:43:50;100302.91;;;23.95;38.41
19150;BME280;9707;49.158;8.632;2023-05-07T05:46:15;100301.06;;;23.96;38.43
19150;BME280;9707;49.158;8.632;2023-05-07T05:48:40;100308.22;;;23.97;38.24
19150;BME280;9707;49.158;8.632;2023-05-07T05:51:05;100302.91;;;23.95;38.01
19150;BME280;9707;49.158;8.632;2023-05-07T05:53:31;100308.22;;;23.97;38.40
19150;BME280;9707;49.158;8.632;2023-05-07T05:55:56;100307.34;;;23.96;38.31
19150;BME280;9707;49.158;8.632;2023-05-07T05:58:21;100310.78;;;23.98;38.47
19150;BME280;9707;49.158;8.632;2023-05-07T06:00:47;100306.19;;;23.99;38.57
19150;BME280;9707;49.158;8.632;2023-05-07T06:03:13;100301.47;;;24.01;38.43
19150;BME280;9707;49.158;8.632;2023-05-07T06:05:38;100311.47;;;24.00;38.27
19150;BME280;9707;49.158;8.632;2023-05-07T06:08:04;100309.63;;;24.01;38.45
19150;BME280;9707;49.158;8.632;2023-05-07T06:10:29;100311.34;;;24.02;38.54
19150;BME280;9707;49.158;8.632;2023-05-07T06:12:55;100308.47;;;24.03;38.45
19150;BME280;9707;49.158;8.632;2023-05-07T06:15:20;100297.59;;;24.03;38.45
19150;BME280;9707;49.158;8.632;2023-05-07T06:17:45;100296.44;;;24.06;38.33
19150;BME280;9707;49.158;8.632;2023-05-07T06:20:11;100300.88;;;24.07;38.35
19150;BME280;9707;49.158;8.632;2023-05-07T06:22:42;100298.03;;;24.08;38.28
19150;BME280;9707;49.158;8.632;2023-05-07T06:25:07;100297.00;;;24.09;38.46
19150;BME280;9707;49.158;8.632;2023-05-07T06:27:33;100298.72;;;24.10;38.30
19150;BME280;9707;49.158;8.632;2023-05-07T06:29:58;100307.75;;;24.11;38.20
19150;BME280;9707;49.158;8.632;2023-05-07T06:32:23;100305.88;;;24.11;38.49
19150;BME280;9707;49.158;8.632;2023-05-07T06:34:49;100302.13;;;24.12;38.41
19150;BME280;9707;49.158;8.632;2023-05-07T06:37:15;100305.72;;;24.13;38.24
19150;BME280;9707;49.158;8.632;2023-05-07T06:39:40;100310.84;;;24.16;38.41
19150;BME280;9707;49.158;8.632;2023-05-07T06:42:05;100306.28;;;24.16;38.44
19150;BME280;9707;49.158;8.632;2023-05-07T06:44:31;100300.69;;;24.18;38.22
19150;BME280;9707;49.158;8.632;2023-05-07T06:46:57;100299.56;;;24.20;38.43
19150;BME280;9707;49.158;8.632;2023-05-07T06:49:22;100292.94;;;24.23;38.11
19150;BME280;9707;49.158;8.632;2023-05-07T06:51:47;100293.78;;;24.23;38.13
19150;BME280;9707;49.158;8.632;2023-05-07T06:54:13;100285.47;;;24.25;38.30
19150;BME280;9707;49.158;8.632;2023-05-07T06:56:38;100293.66;;;24.25;38.35
19150;BME280;9707;49.158;8.632;2023-05-07T06:59:03;100298.09;;;24.26;38.27
19150;BME280;9707;49.158;8.632;2023-05-07T07:01:29;100305.25;;;24.27;38.31
19150;BME280;9707;49.158;8.632;2023-05-07T07:03:54;100296.09;;;24.28;38.41
19150;BME280;9707;49.158;8.632;2023-05-07T07:06:19;100296.78;;;24.30;38.24
19150;BME280;9707;49.158;8.632;2023-05-07T07:08:45;100294.94;;;24.30;38.24
19150;BME280;9707;49.158;8.632;2023-05-07T07:11:10;100297.34;;;24.33;38.21
19150;BME280;9707;49.158;8.632;2023-05-07T07:13:36;100309.78;;;24.36;38.52
19150;BME280;9707;49.158;8.632;2023-05-07T07:16:01;100314.25;;;24.37;38.09
19150;BME280;9707;49.158;8.632;2023-05-07T07:18:26;100311.38;;;24.38;38.33
19150;BME280;9707;49.158;8.632;2023-05-07T07:20:52;100310.22;;;24.41;38.21
19150;BME280;9707;49.158;8.632;2023-05-07T07:23:17;100310.06;;;24.42;38.12
19150;BME280;9707;49.158;8.632;2023-05-07T07:25:42;100307.22;;;24.44;38.37
19150;BME280;9707;49.158;8.632;2023-05-07T07:28:08;100307.91;;;24.46;38.23
19150;BME280;9707;49.158;8.632;2023-05-07T07:30:33;100306.91;;;24.47;38.30
19150;BME280;9707;49.158;8.632;2023-05-07T07:32:58;100305.91;;;24.48;38.12
19150;BME280;9707;49.158;8.632;2023-05-07T07:35:36;100304.88;;;24.49;37.99
19150;BME280;9707;49.158;8.632;2023-05-07T07:38:01;100296.44;;;24.52;37.80
19150;BME280;9707;49.158;8.632;2023-05-07T07:40:27;100297.13;;;24.54;37.68
19150;BME280;9707;49.158;8.632;2023-05-07T07:42:53;100299.84;;;24.54;37.86
19150;BME280;9707;49.158;8.632;2023-05-07T07:45:18;100299.72;;;24.55;37.80
19150;BME280;9707;49.158;8.632;2023-05-07T07:47:43;100306.00;;;24.56;37.94
19150;BME280;9707;49.158;8.632;2023-05-07T07:50:09;100316.75;;;24.57;38.02
19150;BME280;9707;49.158;8.632;2023-05-07T07:52:35;100325.78;;;24.58;38.12
19150;BME280;9707;49.158;8.632;2023-05-07T07:55:01;100327.53;;;24.59;37.98
19150;BME280;9707;49.158;8.632;2023-05-07T07:57:26;100330.13;;;24.60;38.00
19150;BME280;9707;49.158;8.632;2023-05-07T07:59:51;100320.78;;;24.63;37.91
19150;BME280;9707;49.158;8.632;2023-05-07T08:02:17;100317.75;;;24.66;37.81
19150;BME280;9707;49.158;8.632;2023-05-07T08:04:43;100310.28;;;24.68;37.81
19150;BME280;9707;49.158;8.632;2023-05-07T08:07:09;100301.09;;;24.69;37.84
19150;BME280;9707;49.158;8.632;2023-05-07T08:09:34;100315.28;;;24.72;37.52
19150;BME280;9707;49.158;8.632;2023-05-07T08:11:59;100322.44;;;24.73;37.73
19150;BME280;9707;49.158;8.632;2023-05-07T08:14:26;100320.59;;;24.74;37.81
19150;BME280;9707;49.158;8.632;2023-05-07T08:16:53;100313.28;;;24.74;37.61
19150;BME280;9707;49.158;8.632;2023-05-07T08:19:18;100314.84;;;24.77;37.93
19150;BME280;9707;49.158;8.632;2023-05-07T08:21:44;100310.25;;;24.77;37.52
19150;BME280;9707;49.158;8.632;2023-05-07T08:24:10;100318.97;;;24.81;37.82
19150;BME280;9707;49.158;8.632;2023-05-07T08:26:35;100314.25;;;24.83;38.11
19150;BME280;9707;49.158;8.632;2023-05-07T08:29:01;100309.63;;;24.83;37.90
19150;BME280;9707;49.158;8.632;2023-05-07T08:31:26;100313.06;;;24.85;37.82
19150;BME280;9707;49.158;8.632;2023-05-07T08:33:51;100315.66;;;24.87;37.82
19150;BME280;9707;49.158;8.632;2023-05-07T08:36:17;100319.06;;;24.89;38.00
19150;BME280;9707;49.158;8.632;2023-05-07T08:38:44;100323.38;;;24.91;37.71
19150;BME280;9707;49.158;8.632;2023-05-07T08:41:10;100321.47;;;24.92;37.77
19150;BME280;9707;49.158;8.632;2023-05-07T08:43:37;100327.66;;;24.94;37.65
19150;BME280;9707;49.158;8.632;2023-05-07T08:46:04;100320.16;;;24.96;38.00
19150;BME280;9707;49.158;8.632;2023-05-07T08:48:30;100321.88;;;24.97;37.77
19150;BME280;9707;49.158;8.632;2023-05-07T08:50:58;100329.06;;;24.98;37.42
19150;BME280;9707;49.158;8.632;2023-05-07T08:53:24;100332.50;;;25.00;37.37
19150;BME280;9707;49.158;8.632;2023-05-07T08:55:49;100326.91;;;25.01;37.29
19150;BME280;9707;49.158;8.632;2023-05-07T08:58:18;100324.03;;;25.03;37.30
19150;BME280;9707;49.158;8.632;2023-05-07T09:00:43;100331.03;;;25.05;37.54
19150;BME280;9707;49.158;8.632;2023-05-07T09:03:08;100333.59;;;25.07;37.76
19150;BME280;9707;49.158;8.632;2023-05-07T09:05:37;100329.00;;;25.07;37.54
19150;BME280;9707;49.158;8.632;2023-05-07T09:08:02;100322.38;;;25.10;37.79
19150;BME280;9707;49.158;8.632;2023-05-07T09:10:29;100318.66;;;25.11;37.57
19150;BME280;9707;49.158;8.632;2023-05-07T09:12:55;100320.34;;;25.12;37.58
19150;BME280;9707;49.158;8.632;2023-05-07T09:15:20;100317.47;;;25.13;37.67
19150;BME280;9707;49.158;8.632;2023-05-07T09:17:45;100314.75;;;25.13;37.85
19150;BME280;9707;49.158;8.632;2023-05-07T09:20:11;100315.47;;;25.15;38.15
19150;BME280;9707;49.158;8.632;2023-05-07T09:22:39;100300.84;;;25.16;38.12
19150;BME280;9707;49.158;8.632;2023-05-07T09:25:07;100307.69;;;25.20;37.90
19150;BME280;9707;49.158;8.632;2023-05-07T09:27:33;100303.81;;;25.23;38.11
19150;BME280;9707;49.158;8.632;2023-05-07T09:29:58;100308.25;;;25.24;38.02
19150;BME280;9707;49.158;8.632;2023-05-07T09:32:24;100307.13;;;25.26;37.73
19150;BME280;9707;49.158;8.632;2023-05-07T09:34:50;100305.94;;;25.29;38.02
19150;BME280;9707;49.158;8.632;2023-05-07T09:37:15;100302.19;;;25.30;37.82
19150;BME280;9707;49.158;8.632;2023-05-07T09:39:45;100303.91;;;25.31;38.31
19150;BME280;9707;49.158;8.632;2023-05-07T09:42:11;100307.34;;;25.33;38.00
19150;BME280;9707;49.158;8.632;2023-05-07T09:44:38;100301.91;;;25.33;38.09
19150;BME280;9707;49.158;8.632;2023-05-07T09:47:07;100306.00;;;25.37;38.31
19150;BME280;9707;49.158;8.632;2023-05-07T09:49:37;100303.13;;;25.38;38.30
19150;BME280;9707;49.158;8.632;2023-05-07T09:52:05;100303.00;;;25.40;38.26
19150;BME280;9707;49.158;8.632;2023-05-07T09:54:34;100298.22;;;25.42;38.22
19150;BME280;9707;49.158;8.632;2023-05-07T09:57:01;100298.06;;;25.43;38.27
19150;BME280;9707;49.158;8.632;2023-05-07T09:59:27;100291.44;;;25.46;38.18
19150;BME280;9707;49.158;8.632;2023-05-07T10:01:56;100289.44;;;25.48;38.15
19150;BME280;9707;49.158;8.632;2023-05-07T10:04:22;100288.41;;;25.49;38.18
19150;BME280;9707;49.158;8.632;2023-05-07T10:06:48;100288.41;;;25.49;37.87
19150;BME280;9707;49.158;8.632;2023-05-07T10:09:14;100287.25;;;25.51;37.89
19150;BME280;9707;49.158;8.632;2023-05-07T10:11:40;100283.50;;;25.52;38.30
19150;BME280;9707;49.158;8.632;2023-05-07T10:14:06;100286.91;;;25.54;37.86
19150;BME280;9707;49.158;8.632;2023-05-07T10:16:32;100275.72;;;25.57;37.71
19150;BME280;9707;49.158;8.632;2023-05-07T10:19:02;100270.09;;;25.59;37.75
19150;BME280;9707;49.158;8.632;2023-05-07T10:21:29;100280.69;;;25.62;38.06
19150;BME280;9707;49.158;8.632;2023-05-07T10:23:59;100276.09;;;25.62;37.74
19150;BME280;9707;49.158;8.632;2023-05-07T10:26:29;100273.22;;;25.64;37.85
19150;BME280;9707;49.158;8.632;2023-05-07T10:29:01;100269.47;;;25.65;38.22
19150;BME280;9707;49.158;8.632;2023-05-07T10:34:32;100276.31;;;25.69;38.26
19150;BME280;9707;49.158;8.632;2023-05-07T10:37:00;100278.88;;;25.70;37.89
19150;BME280;9707;49.158;8.632;2023-05-07T10:39:25;100268.84;;;25.71;37.72
19150;BME280;9707;49.158;8.632;2023-05-07T10:41:52;100270.53;;;25.72;37.77
19150;BME280;9707;49.158;8.632;2023-05-07T10:44:28;100265.94;;;25.72;38.37
19150;BME280;9707;49.158;8.632;2023-05-07T10:47:09;100260.34;;;25.74;38.34
19150;BME280;9707;49.158;8.632;2023-05-07T10:49:36;100266.47;;;25.76;38.47
19150;BME280;9707;49.158;8.632;2023-05-07T10:52:16;100262.72;;;25.77;37.96
19150;BME280;9707;49.158;8.632;2023-05-07T10:54:42;100254.41;;;25.78;38.54
19150;BME280;9707;49.158;8.632;2023-05-07T10:59:56;100258.69;;;25.81;37.67
19150;BME280;9707;49.158;8.632;2023-05-07T11:02:21;100263.13;;;25.82;37.44
19150;BME280;9707;49.158;8.632;2023-05-07T11:05:18;100256.63;;;25.83;37.50
19150;BME280;9707;49.158;8.632;2023-05-07T11:07:54;100251.19;;;25.83;37.43
19150;BME280;9707;49.158;8.632;2023-05-07T11:10:20;100245.56;;;25.84;37.83
19150;BME280;9707;49.158;8.632;2023-05-07T11:15:12;100238.78;;;25.88;37.78
19150;BME280;9707;49.158;8.632;2023-05-07T11:17:58;100244.91;;;25.90;37.51
19150;BME280;9707;49.158;8.632;2023-05-07T11:20:49;100239.34;;;25.92;37.55
19150;BME280;9707;49.158;8.632;2023-05-07T11:26:00;100246.50;;;25.93;37.75
19150;BME280;9707;49.158;8.632;2023-05-07T11:28:27;100237.31;;;25.94;37.68
19150;BME280;9707;49.158;8.632;2023-05-07T11:30:53;100234.41;;;25.95;37.52
19150;BME280;9707;49.158;8.632;2023-05-07T11:33:18;100237.84;;;25.97;37.72
19150;BME280;9707;49.158;8.632;2023-05-07T11:35:45;100234.63;;;26.02;37.37
19150;BME280;9707;49.158;8.632;2023-05-07T11:38:11;100234.47;;;26.03;37.23
19150;BME280;9707;49.158;8.632;2023-05-07T11:40:58;100229.69;;;26.05;37.08
19150;BME280;9707;49.158;8.632;2023-05-07T11:43:26;100218.78;;;26.05;37.33
19150;BME280;9707;49.158;8.632;2023-05-07T11:45:51;100232.28;;;26.07;37.12
19150;BME280;9707;49.158;8.632;2023-05-07T11:48:17;100225.78;;;26.08;37.02
19150;BME280;9707;49.158;8.632;2023-05-07T11:51:00;100229.25;;;26.10;37.14
19150;BME280;9707;49.158;8.632;2023-05-07T11:53:28;100238.97;;;26.12;37.90
19150;BME280;9707;49.158;8.632;2023-05-07T11:55:56;100233.38;;;26.14;36.84
19150;BME280;9707;49.158;8.632;2023-05-07T11:58:23;100229.59;;;26.15;36.74
19150;BME280;9707;49.158;8.632;2023-05-07T12:00:54;100229.47;;;26.16;36.86
19150;BME280;9707;49.158;8.632;2023-05-07T12:03:20;100226.53;;;26.18;37.08
19150;BME280;9707;49.158;8.632;2023-05-07T12:05:47;100226.38;;;26.19;36.85
19150;BME280;9707;49.158;8.632;2023-05-07T12:08:16;100222.47;;;26.22;36.43
19150;BME280;9707;49.158;8.632;2023-05-07T12:10:43;100215.97;;;26.23;36.60
19150;BME280;9707;49.158;8.632;2023-05-07T12:13:19;100216.53;;;26.26;36.56
19150;BME280;9707;49.158;8.632;2023-05-07T12:15:45;100219.09;;;26.28;36.81
19150;BME280;9707;49.158;8.632;2023-05-07T12:18:11;100224.22;;;26.31;37.10
19150;BME280;9707;49.158;8.632;2023-05-07T12:20:38;100221.16;;;26.34;36.65
19150;BME280;9707;49.158;8.632;2023-05-07T12:23:04;100224.59;;;26.36;36.56
19150;BME280;9707;49.158;8.632;2023-05-07T12:25:31;100213.50;;;26.37;36.65
19150;BME280;9707;49.158;8.632;2023-05-07T12:27:56;100212.34;;;26.40;36.66
19150;BME280;9707;49.158;8.632;2023-05-07T12:30:24;100215.75;;;26.42;36.38
19150;BME280;9707;49.158;8.632;2023-05-07T12:32:52;100215.59;;;26.43;36.50
19150;BME280;9707;49.158;8.632;2023-05-07T12:35:26;100208.94;;;26.46;36.24
19150;BME280;9707;49.158;8.632;2023-05-07T12:37:55;100214.25;;;26.47;36.44
19150;BME280;9707;49.158;8.632;2023-05-07T12:40:20;100215.78;;;26.50;36.22
19150;BME280;9707;49.158;8.632;2023-05-07T12:42:46;100209.31;;;26.51;36.21
19150;BME280;9707;49.158;8.632;2023-05-07T12:45:12;100206.41;;;26.52;35.80
19150;BME280;9707;49.158;8.632;2023-05-07T12:47:43;100202.66;;;26.53;36.11
19150;BME280;9707;49.158;8.632;2023-05-07T12:50:09;100207.09;;;26.54;36.01
19150;BME280;9707;49.158;8.632;2023-05-07T12:52:35;100202.50;;;26.55;35.88
19150;BME280;9707;49.158;8.632;2023-05-07T12:55:07;100208.94;;;26.54;35.90
19150;BME280;9707;49.158;8.632;2023-05-07T12:57:41;100205.22;;;26.55;36.34
19150;BME280;9707;49.158;8.632;2023-05-07T13:00:07;100203.38;;;26.55;35.94
19150;BME280;9707;49.158;8.632;2023-05-07T13:02:33;100211.41;;;26.57;36.41
19150;BME280;9707;49.158;8.632;2023-05-07T13:04:59;100205.06;;;26.56;36.41
19150;BME280;9707;49.158;8.632;2023-05-07T13:07:25;100198.59;;;26.57;36.50